sensor_id;sensor_type;location;lat;lon;timestamp;temperature;humidity
42683;DHT22;28293;50.930;3.464;2023-10-31T00:00:44;11.10;99.20
42683;DHT22;28293;50.930;3.464;2023-10-31T00:03:09;11.10;99.20
42683;DHT22;28293;50.930;3.464;2023-10-31T00:05:36;11.10;99.30
42683;DHT22;28293;50.930;3.464;2023-10-31T00:08:01;11.10;99.30
42683;DHT22;28293;50.930;3.464;2023-10-31T00:10:27;11.10;99.30
42683;DHT22;28293;50.930;3.464;2023-10-31T00:12:53;11.10;99.30
42683;DHT22;28293;50.930;3.464;2023-10-31T00:15:18;11.10;99.30
42683;DHT22;28293;50.930;3.464;2023-10-31T00:17:44;11.10;99.30
42683;DHT22;28293;50.930;3.464;2023-10-31T00:20:10;11.10;99.30
42683;DHT22;28293;50.930;3.464;2023-10-31T00:22:35;11.10;99.30
42683;DHT22;28293;50.930;3.464;2023-10-31T00:25:01;11.10;99.20
42683;DHT22;28293;50.930;3.464;2023-10-31T00:27:27;11.00;99.20
42683;DHT22;28293;50.930;3.464;2023-10-31T00:29:52;11.00;99.20
42683;DHT22;28293;50.930;3.464;2023-10-31T00:32:18;10.90;99.20
42683;DHT22;28293;50.930;3.464;2023-10-31T00:34:44;10.90;99.20
42683;DHT22;28293;50.930;3.464;2023-10-31T00:37:09;10.90;99.30
42683;DHT22;28293;50.930;3.464;2023-10-31T00:39:35;10.90;99.40
42683;DHT22;28293;50.930;3.464;2023-10-31T00:42:01;10.90;99.40
42683;DHT22;28293;50.930;3.464;2023-10-31T00:44:26;10.90;99.40
42683;DHT22;28293;50.930;3.464;2023-10-31T00:46:52;10.90;99.40
42683;DHT22;28293;50.930;3.464;2023-10-31T00:49:17;10.90;99.40
42683;DHT22;28293;50.930;3.464;2023-10-31T00:51:43;10.90;99.40
42683;DHT22;28293;50.930;3.464;2023-10-31T00:54:09;10.90;99.40
42683;DHT22;28293;50.930;3.464;2023-10-31T00:56:34;10.90;99.40
42683;DHT22;28293;50.930;3.464;2023-10-31T00:59:00;10.90;99.40
42683;DHT22;28293;50.930;3.464;2023-10-31T01:01:26;10.90;99.40
42683;DHT22;28293;50.930;3.464;2023-10-31T01:03:51;10.90;99.40
42683;DHT22;28293;50.930;3.464;2023-10-31T01:06:17;10.90;99.40
42683;DHT22;28293;50.930;3.464;2023-10-31T01:08:43;10.90;99.50
42683;DHT22;28293;50.930;3.464;2023-10-31T01:11:08;10.90;99.40
42683;DHT22;28293;50.930;3.464;2023-10-31T01:13:34;10.90;99.50
42683;DHT22;28293;50.930;3.464;2023-10-31T01:15:59;10.90;99.50
42683;DHT22;28293;50.930;3.464;2023-10-31T01:18:25;10.90;99.50
42683;DHT22;28293;50.930;3.464;2023-10-31T01:20:51;10.90;99.40
42683;DHT22;28293;50.930;3.464;2023-10-31T01:23:17;10.90;99.40
42683;DHT22;28293;50.930;3.464;2023-10-31T01:25:42;10.90;99.40
42683;DHT22;28293;50.930;3.464;2023-10-31T01:28:08;10.80;99.40
42683;DHT22;28293;50.930;3.464;2023-10-31T01:30:34;10.80;99.40
42683;DHT22;28293;50.930;3.464;2023-10-31T01:32:59;10.80;99.30
42683;DHT22;28293;50.930;3.464;2023-10-31T01:35:25;10.80;99.30
42683;DHT22;28293;50.930;3.464;2023-10-31T01:37:51;10.70;99.20
42683;DHT22;28293;50.930;3.464;2023-10-31T01:40:16;10.60;99.20
42683;DHT22;28293;50.930;3.464;2023-10-31T01:42:42;10.60;99.10
42683;DHT22;28293;50.930;3.464;2023-10-31T01:45:08;10.60;99.00
42683;DHT22;28293;50.930;3.464;2023-10-31T01:47:33;10.50;99.00
42683;DHT22;28293;50.930;3.464;2023-10-31T01:49:59;10.40;99.00
42683;DHT22;28293;50.930;3.464;2023-10-31T01:52:26;10.30;98.90
42683;DHT22;28293;50.930;3.464;2023-10-31T01:54:52;10.30;98.90
42683;DHT22;28293;50.930;3.464;2023-10-31T01:57:19;10.20;98.90
42683;DHT22;28293;50.930;3.464;2023-10-31T01:59:46;10.10;98.90
42683;DHT22;28293;50.930;3.464;2023-10-31T02:02:12;10.10;98.90
42683;DHT22;28293;50.930;3.464;2023-10-31T02:04:38;10.10;99.00
42683;DHT22;28293;50.930;3.464;2023-10-31T02:07:03;10.10;99.00
42683;DHT22;28293;50.930;3.464;2023-10-31T02:09:29;10.10;98.90
42683;DHT22;28293;50.930;3.464;2023-10-31T02:11:55;10.00;98.90
42683;DHT22;28293;50.930;3.464;2023-10-31T02:14:23;9.90;98.80
42683;DHT22;28293;50.930;3.464;2023-10-31T02:16:49;9.90;98.80
42683;DHT22;28293;50.930;3.464;2023-10-31T02:19:18;9.90;98.80
42683;DHT22;28293;50.930;3.464;2023-10-31T02:21:44;9.80;98.80
42683;DHT22;28293;50.930;3.464;2023-10-31T02:24:10;9.90;98.70
42683;DHT22;28293;50.930;3.464;2023-10-31T02:26:36;9.80;98.70
42683;DHT22;28293;50.930;3.464;2023-10-31T02:29:02;9.90;98.70
42683;DHT22;28293;50.930;3.464;2023-10-31T02:31:28;9.80;98.70
42683;DHT22;28293;50.930;3.464;2023-10-31T02:33:54;9.80;98.70
42683;DHT22;28293;50.930;3.464;2023-10-31T02:36:20;9.80;98.80
42683;DHT22;28293;50.930;3.464;2023-10-31T02:38:46;9.80;98.80
42683;DHT22;28293;50.930;3.464;2023-10-31T02:41:12;9.80;98.70
42683;DHT22;28293;50.930;3.464;2023-10-31T02:43:39;9.80;98.80
42683;DHT22;28293;50.930;3.464;2023-10-31T02:46:05;9.80;98.80
42683;DHT22;28293;50.930;3.464;2023-10-31T02:48:30;9.70;98.80
42683;DHT22;28293;50.930;3.464;2023-10-31T02:51:05;9.80;98.80
42683;DHT22;28293;50.930;3.464;2023-10-31T02:53:31;9.70;98.90
42683;DHT22;28293;50.930;3.464;2023-10-31T02:55:57;9.70;98.80
42683;DHT22;28293;50.930;3.464;2023-10-31T02:58:23;9.70;98.80
42683;DHT22;28293;50.930;3.464;2023-10-31T03:00:49;9.70;98.80
42683;DHT22;28293;50.930;3.464;2023-10-31T03:03:15;9.70;98.70
42683;DHT22;28293;50.930;3.464;2023-10-31T03:05:41;9.60;98.70
42683;DHT22;28293;50.930;3.464;2023-10-31T03:08:07;9.60;98.70
42683;DHT22;28293;50.930;3.464;2023-10-31T03:10:37;9.60;98.80
42683;DHT22;28293;50.930;3.464;2023-10-31T03:13:03;9.60;98.80
42683;DHT22;28293;50.930;3.464;2023-10-31T03:15:29;9.50;98.90
42683;DHT22;28293;50.930;3.464;2023-10-31T03:17:54;9.50;98.90
42683;DHT22;28293;50.930;3.464;2023-10-31T03:20:20;9.50;98.90
42683;DHT22;28293;50.930;3.464;2023-10-31T03:22:46;9.50;99.00
42683;DHT22;28293;50.930;3.464;2023-10-31T03:25:11;9.50;98.90
42683;DHT22;28293;50.930;3.464;2023-10-31T03:27:37;9.50;99.00
42683;DHT22;28293;50.930;3.464;2023-10-31T03:30:03;9.40;99.00
42683;DHT22;28293;50.930;3.464;2023-10-31T03:32:29;9.40;99.00
42683;DHT22;28293;50.930;3.464;2023-10-31T03:34:55;9.40;99.00
42683;DHT22;28293;50.930;3.464;2023-10-31T03:37:20;9.40;99.00
42683;DHT22;28293;50.930;3.464;2023-10-31T03:39:46;9.40;99.10
42683;DHT22;28293;50.930;3.464;2023-10-31T03:42:12;9.40;99.10
42683;DHT22;28293;50.930;3.464;2023-10-31T03:44:37;9.30;99.10
42683;DHT22;28293;50.930;3.464;2023-10-31T03:47:03;9.30;99.20
42683;DHT22;28293;50.930;3.464;2023-10-31T03:49:29;9.30;99.20
42683;DHT22;28293;50.930;3.464;2023-10-31T03:51:54;9.30;99.20
42683;DHT22;28293;50.930;3.464;2023-10-31T03:54:20;9.20;99.20
42683;DHT22;28293;50.930;3.464;2023-10-31T03:56:45;9.30;99.20
42683;DHT22;28293;50.930;3.464;2023-10-31T03:59:11;9.30;99.30
42683;DHT22;28293;50.930;3.464;2023-10-31T04:01:37;9.30;99.30
42683;DHT22;28293;50.930;3.464;2023-10-31T04:04:02;9.30;99.40
42683;DHT22;28293;50.930;3.464;2023-10-31T04:06:28;9.40;99.40
42683;DHT22;28293;50.930;3.464;2023-10-31T04:08:54;9.40;99.50
42683;DHT22;28293;50.930;3.464;2023-10-31T04:11:20;9.40;99.50
42683;DHT22;28293;50.930;3.464;2023-10-31T04:13:45;9.40;99.50
42683;DHT22;28293;50.930;3.464;2023-10-31T04:16:11;9.50;99.50
42683;DHT22;28293;50.930;3.464;2023-10-31T04:18:37;9.50;99.50
42683;DHT22;28293;50.930;3.464;2023-10-31T04:21:03;9.50;99.50
42683;DHT22;28293;50.930;3.464;2023-10-31T04:23:28;9.60;99.50
42683;DHT22;28293;50.930;3.464;2023-10-31T04:25:54;9.60;99.50
42683;DHT22;28293;50.930;3.464;2023-10-31T04:28:20;9.60;99.60
42683;DHT22;28293;50.930;3.464;2023-10-31T04:30:45;9.60;99.50
42683;DHT22;28293;50.930;3.464;2023-10-31T04:33:11;9.60;99.50
42683;DHT22;28293;50.930;3.464;2023-10-31T04:35:37;9.60;99.50
42683;DHT22;28293;50.930;3.464;2023-10-31T04:38:02;9.60;99.50
42683;DHT22;28293;50.930;3.464;2023-10-31T04:40:28;9.60;99.50
42683;DHT22;28293;50.930;3.464;2023-10-31T04:42:54;9.60;99.60
42683;DHT22;28293;50.930;3.464;2023-10-31T04:45:20;9.60;99.60
42683;DHT22;28293;50.930;3.464;2023-10-31T04:47:47;9.70;99.60
42683;DHT22;28293;50.930;3.464;2023-10-31T04:50:12;9.70;99.60
42683;DHT22;28293;50.930;3.464;2023-10-31T04:52:38;9.70;99.60
42683;DHT22;28293;50.930;3.464;2023-10-31T04:55:04;9.70;99.60
42683;DHT22;28293;50.930;3.464;2023-10-31T04:57:30;9.70;99.60
42683;DHT22;28293;50.930;3.464;2023-10-31T04:59:56;9.70;99.60
42683;DHT22;28293;50.930;3.464;2023-10-31T05:02:23;9.80;99.70
42683;DHT22;28293;50.930;3.464;2023-10-31T05:04:49;9.80;99.70
42683;DHT22;28293;50.930;3.464;2023-10-31T05:07:18;9.90;99.70
42683;DHT22;28293;50.930;3.464;2023-10-31T05:09:44;9.80;99.70
42683;DHT22;28293;50.930;3.464;2023-10-31T05:12:10;9.80;99.70
42683;DHT22;28293;50.930;3.464;2023-10-31T05:14:35;9.90;99.70
42683;DHT22;28293;50.930;3.464;2023-10-31T05:17:01;9.90;99.70
42683;DHT22;28293;50.930;3.464;2023-10-31T05:19:27;10.00;99.80
42683;DHT22;28293;50.930;3.464;2023-10-31T05:21:52;10.00;99.80
42683;DHT22;28293;50.930;3.464;2023-10-31T05:24:18;10.10;99.80
42683;DHT22;28293;50.930;3.464;2023-10-31T05:26:44;10.10;99.80
42683;DHT22;28293;50.930;3.464;2023-10-31T05:29:11;10.10;99.80
42683;DHT22;28293;50.930;3.464;2023-10-31T05:31:37;10.10;99.80
42683;DHT22;28293;50.930;3.464;2023-10-31T05:34:03;10.10;99.80
42683;DHT22;28293;50.930;3.464;2023-10-31T05:36:32;10.10;99.70
42683;DHT22;28293;50.930;3.464;2023-10-31T05:38:57;10.10;99.80
42683;DHT22;28293;50.930;3.464;2023-10-31T05:41:23;10.10;99.80
42683;DHT22;28293;50.930;3.464;2023-10-31T05:43:49;10.10;99.80
42683;DHT22;28293;50.930;3.464;2023-10-31T05:46:15;10.10;99.70
42683;DHT22;28293;50.930;3.464;2023-10-31T05:48:41;10.00;99.70
42683;DHT22;28293;50.930;3.464;2023-10-31T05:51:12;10.00;99.80
42683;DHT22;28293;50.930;3.464;2023-10-31T05:53:40;10.00;99.80
42683;DHT22;28293;50.930;3.464;2023-10-31T05:56:06;10.00;99.90
42683;DHT22;28293;50.930;3.464;2023-10-31T05:58:34;10.10;99.80
42683;DHT22;28293;50.930;3.464;2023-10-31T06:01:00;10.00;99.80
42683;DHT22;28293;50.930;3.464;2023-10-31T06:03:26;10.00;99.80
42683;DHT22;28293;50.930;3.464;2023-10-31T06:05:51;10.00;99.90
42683;DHT22;28293;50.930;3.464;2023-10-31T06:08:17;10.00;99.90
42683;DHT22;28293;50.930;3.464;2023-10-31T06:10:43;10.10;99.90
42683;DHT22;28293;50.930;3.464;2023-10-31T06:13:08;10.10;99.90
42683;DHT22;28293;50.930;3.464;2023-10-31T06:15:34;10.10;99.90
42683;DHT22;28293;50.930;3.464;2023-10-31T06:18:00;10.10;99.80
42683;DHT22;28293;50.930;3.464;2023-10-31T06:20:26;10.10;99.80
42683;DHT22;28293;50.930;3.464;2023-10-31T06:22:51;10.10;99.70
42683;DHT22;28293;50.930;3.464;2023-10-31T06:25:17;10.10;99.70
42683;DHT22;28293;50.930;3.464;2023-10-31T06:27:43;10.00;99.60
42683;DHT22;28293;50.930;3.464;2023-10-31T06:30:09;10.00;99.70
42683;DHT22;28293;50.930;3.464;2023-10-31T06:32:35;10.00;99.70
42683;DHT22;28293;50.930;3.464;2023-10-31T06:35:02;10.00;99.70
42683;DHT22;28293;50.930;3.464;2023-10-31T06:37:27;10.10;99.60
42683;DHT22;28293;50.930;3.464;2023-10-31T06:39:53;10.00;99.60
42683;DHT22;28293;50.930;3.464;2023-10-31T06:42:19;10.00;99.60
42683;DHT22;28293;50.930;3.464;2023-10-31T06:44:44;10.00;99.50
42683;DHT22;28293;50.930;3.464;2023-10-31T06:47:10;10.00;99.40
42683;DHT22;28293;50.930;3.464;2023-10-31T06:49:35;9.90;99.40
42683;DHT22;28293;50.930;3.464;2023-10-31T06:52:02;9.90;99.40
42683;DHT22;28293;50.930;3.464;2023-10-31T06:54:28;10.00;99.30
42683;DHT22;28293;50.930;3.464;2023-10-31T06:56:54;9.90;99.30
42683;DHT22;28293;50.930;3.464;2023-10-31T06:59:19;10.00;99.30
42683;DHT22;28293;50.930;3.464;2023-10-31T07:01:45;9.90;99.20
42683;DHT22;28293;50.930;3.464;2023-10-31T07:04:12;9.90;99.20
42683;DHT22;28293;50.930;3.464;2023-10-31T07:06:37;9.90;99.20
42683;DHT22;28293;50.930;3.464;2023-10-31T07:09:03;9.90;99.20
42683;DHT22;28293;50.930;3.464;2023-10-31T07:11:31;10.00;99.10
42683;DHT22;28293;50.930;3.464;2023-10-31T07:14:02;9.90;99.00
42683;DHT22;28293;50.930;3.464;2023-10-31T07:16:28;9.90;99.00
42683;DHT22;28293;50.930;3.464;2023-10-31T07:18:54;10.00;99.00
42683;DHT22;28293;50.930;3.464;2023-10-31T07:21:20;10.00;98.90
42683;DHT22;28293;50.930;3.464;2023-10-31T07:23:46;9.90;98.80
42683;DHT22;28293;50.930;3.464;2023-10-31T07:26:11;10.00;98.80
42683;DHT22;28293;50.930;3.464;2023-10-31T07:28:37;10.00;98.80
42683;DHT22;28293;50.930;3.464;2023-10-31T07:31:03;10.10;98.70
42683;DHT22;28293;50.930;3.464;2023-10-31T07:33:30;10.00;98.60
42683;DHT22;28293;50.930;3.464;2023-10-31T07:35:55;10.00;98.60
42683;DHT22;28293;50.930;3.464;2023-10-31T07:38:22;10.00;98.50
42683;DHT22;28293;50.930;3.464;2023-10-31T07:40:48;10.00;98.40
42683;DHT22;28293;50.930;3.464;2023-10-31T07:43:15;10.00;98.40
42683;DHT22;28293;50.930;3.464;2023-10-31T07:45:40;10.00;98.30
42683;DHT22;28293;50.930;3.464;2023-10-31T07:48:07;10.00;98.30
42683;DHT22;28293;50.930;3.464;2023-10-31T07:50:32;10.00;98.30
42683;DHT22;28293;50.930;3.464;2023-10-31T07:52:58;10.00;98.40
42683;DHT22;28293;50.930;3.464;2023-10-31T07:55:23;10.10;98.30
42683;DHT22;28293;50.930;3.464;2023-10-31T07:57:50;10.10;98.30
42683;DHT22;28293;50.930;3.464;2023-10-31T08:00:16;10.10;98.20
42683;DHT22;28293;50.930;3.464;2023-10-31T08:02:41;10.20;98.10
42683;DHT22;28293;50.930;3.464;2023-10-31T08:05:07;10.30;98.10
42683;DHT22;28293;50.930;3.464;2023-10-31T08:07:33;10.40;98.10
42683;DHT22;28293;50.930;3.464;2023-10-31T08:09:58;10.50;98.00
42683;DHT22;28293;50.930;3.464;2023-10-31T08:12:24;10.60;97.80
42683;DHT22;28293;50.930;3.464;2023-10-31T08:14:50;10.70;97.60
42683;DHT22;28293;50.930;3.464;2023-10-31T08:17:15;10.70;97.30
42683;DHT22;28293;50.930;3.464;2023-10-31T08:19:41;10.90;97.30
42683;DHT22;28293;50.930;3.464;2023-10-31T08:22:07;11.00;97.00
42683;DHT22;28293;50.930;3.464;2023-10-31T08:24:33;11.00;96.70
42683;DHT22;28293;50.930;3.464;2023-10-31T08:27:01;11.10;96.60
42683;DHT22;28293;50.930;3.464;2023-10-31T08:29:27;11.20;96.50
42683;DHT22;28293;50.930;3.464;2023-10-31T08:31:53;11.30;96.50
42683;DHT22;28293;50.930;3.464;2023-10-31T08:34:18;11.30;96.00
42683;DHT22;28293;50.930;3.464;2023-10-31T08:36:44;11.30;95.70
42683;DHT22;28293;50.930;3.464;2023-10-31T08:39:10;11.30;95.30
42683;DHT22;28293;50.930;3.464;2023-10-31T08:41:35;11.10;95.30
42683;DHT22;28293;50.930;3.464;2023-10-31T08:44:02;11.10;95.50
42683;DHT22;28293;50.930;3.464;2023-10-31T08:46:29;11.00;95.50
42683;DHT22;28293;50.930;3.464;2023-10-31T08:48:54;10.90;95.70
42683;DHT22;28293;50.930;3.464;2023-10-31T08:51:20;10.90;95.90
42683;DHT22;28293;50.930;3.464;2023-10-31T08:53:45;10.90;96.00
42683;DHT22;28293;50.930;3.464;2023-10-31T08:56:11;10.90;96.10
42683;DHT22;28293;50.930;3.464;2023-10-31T08:58:36;10.80;96.20
42683;DHT22;28293;50.930;3.464;2023-10-31T09:01:02;10.70;96.10
42683;DHT22;28293;50.930;3.464;2023-10-31T09:03:28;10.70;96.30
42683;DHT22;28293;50.930;3.464;2023-10-31T09:05:54;10.80;96.50
42683;DHT22;28293;50.930;3.464;2023-10-31T09:08:19;10.90;96.30
42683;DHT22;28293;50.930;3.464;2023-10-31T09:10:45;10.80;96.30
42683;DHT22;28293;50.930;3.464;2023-10-31T09:13:12;10.80;96.20
42683;DHT22;28293;50.930;3.464;2023-10-31T09:15:37;10.80;96.30
42683;DHT22;28293;50.930;3.464;2023-10-31T09:18:04;10.80;96.30
42683;DHT22;28293;50.930;3.464;2023-10-31T09:20:29;10.80;96.40
42683;DHT22;28293;50.930;3.464;2023-10-31T09:22:55;10.80;96.30
42683;DHT22;28293;50.930;3.464;2023-10-31T09:25:21;10.80;96.40
42683;DHT22;28293;50.930;3.464;2023-10-31T09:27:47;10.70;96.30
42683;DHT22;28293;50.930;3.464;2023-10-31T09:30:12;10.80;96.40
42683;DHT22;28293;50.930;3.464;2023-10-31T09:32:38;10.70;96.30
42683;DHT22;28293;50.930;3.464;2023-10-31T09:35:04;10.70;96.30
42683;DHT22;28293;50.930;3.464;2023-10-31T09:37:31;10.80;96.40
42683;DHT22;28293;50.930;3.464;2023-10-31T09:39:56;10.80;96.30
42683;DHT22;28293;50.930;3.464;2023-10-31T09:42:22;10.80;96.40
42683;DHT22;28293;50.930;3.464;2023-10-31T09:44:48;10.80;96.50
42683;DHT22;28293;50.930;3.464;2023-10-31T09:47:15;10.90;96.50
42683;DHT22;28293;50.930;3.464;2023-10-31T09:49:41;11.00;96.50
42683;DHT22;28293;50.930;3.464;2023-10-31T09:52:07;10.90;96.40
42683;DHT22;28293;50.930;3.464;2023-10-31T09:54:34;11.10;96.60
42683;DHT22;28293;50.930;3.464;2023-10-31T09:57:00;11.00;96.30
42683;DHT22;28293;50.930;3.464;2023-10-31T09:59:25;10.90;96.50
42683;DHT22;28293;50.930;3.464;2023-10-31T10:01:51;11.00;96.50
42683;DHT22;28293;50.930;3.464;2023-10-31T10:04:17;10.90;96.40
42683;DHT22;28293;50.930;3.464;2023-10-31T10:06:59;10.80;96.30
42683;DHT22;28293;50.930;3.464;2023-10-31T10:09:25;10.80;96.40
42683;DHT22;28293;50.930;3.464;2023-10-31T10:11:52;10.80;96.60
42683;DHT22;28293;50.930;3.464;2023-10-31T10:14:17;10.80;96.70
42683;DHT22;28293;50.930;3.464;2023-10-31T10:16:43;10.80;96.80
42683;DHT22;28293;50.930;3.464;2023-10-31T10:19:19;10.80;96.90
42683;DHT22;28293;50.930;3.464;2023-10-31T10:21:56;10.80;96.80
42683;DHT22;28293;50.930;3.464;2023-10-31T10:24:23;10.80;96.90
42683;DHT22;28293;50.930;3.464;2023-10-31T10:26:50;10.90;96.90
42683;DHT22;28293;50.930;3.464;2023-10-31T10:29:17;10.80;96.80
42683;DHT22;28293;50.930;3.464;2023-10-31T10:31:43;11.00;96.80
42683;DHT22;28293;50.930;3.464;2023-10-31T10:34:10;10.90;96.80
42683;DHT22;28293;50.930;3.464;2023-10-31T10:36:36;11.00;96.80
42683;DHT22;28293;50.930;3.464;2023-10-31T10:39:02;11.00;96.90
42683;DHT22;28293;50.930;3.464;2023-10-31T10:41:29;11.00;96.80
42683;DHT22;28293;50.930;3.464;2023-10-31T10:44:07;11.00;96.90
42683;DHT22;28293;50.930;3.464;2023-10-31T10:46:34;11.10;96.90
42683;DHT22;28293;50.930;3.464;2023-10-31T10:49:04;11.00;96.90
42683;DHT22;28293;50.930;3.464;2023-10-31T10:51:49;11.00;96.90
42683;DHT22;28293;50.930;3.464;2023-10-31T10:54:26;11.00;97.00
42683;DHT22;28293;50.930;3.464;2023-10-31T10:56:59;11.10;97.00
42683;DHT22;28293;50.930;3.464;2023-10-31T10:59:49;11.10;97.00
42683;DHT22;28293;50.930;3.464;2023-10-31T11:02:19;11.10;97.10
42683;DHT22;28293;50.930;3.464;2023-10-31T11:04:45;11.10;97.40
42683;DHT22;28293;50.930;3.464;2023-10-31T11:07:13;11.10;97.60
42683;DHT22;28293;50.930;3.464;2023-10-31T11:09:39;11.10;97.60
42683;DHT22;28293;50.930;3.464;2023-10-31T11:12:07;11.10;97.60
42683;DHT22;28293;50.930;3.464;2023-10-31T11:14:33;11.10;97.60
42683;DHT22;28293;50.930;3.464;2023-10-31T11:17:03;11.10;97.60
42683;DHT22;28293;50.930;3.464;2023-10-31T11:19:33;11.10;97.60
42683;DHT22;28293;50.930;3.464;2023-10-31T11:22:00;11.10;97.80
42683;DHT22;28293;50.930;3.464;2023-10-31T11:24:31;11.10;97.80
42683;DHT22;28293;50.930;3.464;2023-10-31T11:27:05;11.20;97.90
42683;DHT22;28293;50.930;3.464;2023-10-31T11:29:31;11.30;97.90
42683;DHT22;28293;50.930;3.464;2023-10-31T11:31:57;11.30;98.00
42683;DHT22;28293;50.930;3.464;2023-10-31T11:34:27;11.50;98.00
42683;DHT22;28293;50.930;3.464;2023-10-31T11:36:53;11.50;98.00
42683;DHT22;28293;50.930;3.464;2023-10-31T11:39:39;11.60;97.90
42683;DHT22;28293;50.930;3.464;2023-10-31T11:42:17;11.70;97.70
42683;DHT22;28293;50.930;3.464;2023-10-31T11:44:55;11.90;97.70
42683;DHT22;28293;50.930;3.464;2023-10-31T11:47:22;12.10;97.60
42683;DHT22;28293;50.930;3.464;2023-10-31T11:49:48;12.20;97.50
42683;DHT22;28293;50.930;3.464;2023-10-31T11:52:18;12.30;97.30
42683;DHT22;28293;50.930;3.464;2023-10-31T11:54:44;12.40;97.20
42683;DHT22;28293;50.930;3.464;2023-10-31T11:57:09;12.60;97.20
42683;DHT22;28293;50.930;3.464;2023-10-31T11:59:37;12.60;96.90
42683;DHT22;28293;50.930;3.464;2023-10-31T12:02:15;12.60;96.80
42683;DHT22;28293;50.930;3.464;2023-10-31T12:04:41;12.60;96.60
42683;DHT22;28293;50.930;3.464;2023-10-31T12:07:08;12.70;96.70
42683;DHT22;28293;50.930;3.464;2023-10-31T12:09:48;12.60;96.50
42683;DHT22;28293;50.930;3.464;2023-10-31T12:12:14;12.60;96.50
42683;DHT22;28293;50.930;3.464;2023-10-31T12:14:40;12.60;96.60
42683;DHT22;28293;50.930;3.464;2023-10-31T12:17:07;12.70;96.40
42683;DHT22;28293;50.930;3.464;2023-10-31T12:19:36;12.60;96.40
42683;DHT22;28293;50.930;3.464;2023-10-31T12:22:02;12.70;96.50
42683;DHT22;28293;50.930;3.464;2023-10-31T12:24:37;12.60;96.40
42683;DHT22;28293;50.930;3.464;2023-10-31T12:27:03;12.70;96.40
42683;DHT22;28293;50.930;3.464;2023-10-31T12:29:29;12.70;96.50
42683;DHT22;28293;50.930;3.464;2023-10-31T12:31:54;12.80;96.30
42683;DHT22;28293;50.930;3.464;2023-10-31T12:34:24;12.90;96.60
42683;DHT22;28293;50.930;3.464;2023-10-31T12:36:53;13.00;96.20
42683;DHT22;28293;50.930;3.464;2023-10-31T12:39:24;13.10;96.10
42683;DHT22;28293;50.930;3.464;2023-10-31T12:41:51;13.10;96.00
42683;DHT22;28293;50.930;3.464;2023-10-31T12:44:23;13.20;95.70
42683;DHT22;28293;50.930;3.464;2023-10-31T12:46:48;13.30;95.70
42683;DHT22;28293;50.930;3.464;2023-10-31T12:49:18;13.30;95.40
42683;DHT22;28293;50.930;3.464;2023-10-31T12:52:01;13.20;94.90
42683;DHT22;28293;50.930;3.464;2023-10-31T12:54:34;13.30;94.70
42683;DHT22;28293;50.930;3.464;2023-10-31T12:57:07;13.40;94.60
42683;DHT22;28293;50.930;3.464;2023-10-31T12:59:35;13.40;94.60
42683;DHT22;28293;50.930;3.464;2023-10-31T13:02:02;13.50;94.40
42683;DHT22;28293;50.930;3.464;2023-10-31T13:04:29;13.60;94.20
42683;DHT22;28293;50.930;3.464;2023-10-31T13:07:03;13.80;94.10
42683;DHT22;28293;50.930;3.464;2023-10-31T13:09:34;14.10;93.90
42683;DHT22;28293;50.930;3.464;2023-10-31T13:12:01;14.20;93.20
42683;DHT22;28293;50.930;3.464;2023-10-31T13:14:28;14.20;92.70
42683;DHT22;28293;50.930;3.464;2023-10-31T13:16:53;14.30;92.30
42683;DHT22;28293;50.930;3.464;2023-10-31T13:19:19;14.50;92.40
42683;DHT22;28293;50.930;3.464;2023-10-31T13:21:45;14.60;92.30
42683;DHT22;28293;50.930;3.464;2023-10-31T13:24:10;14.60;91.70
42683;DHT22;28293;50.930;3.464;2023-10-31T13:26:36;14.40;91.40
42683;DHT22;28293;50.930;3.464;2023-10-31T13:29:02;14.30;91.70
42683;DHT22;28293;50.930;3.464;2023-10-31T13:31:27;14.10;92.00
42683;DHT22;28293;50.930;3.464;2023-10-31T13:33:53;14.10;92.40
42683;DHT22;28293;50.930;3.464;2023-10-31T13:36:19;14.10;92.50
42683;DHT22;28293;50.930;3.464;2023-10-31T13:38:45;14.00;92.80
42683;DHT22;28293;50.930;3.464;2023-10-31T13:41:12;14.00;92.90
42683;DHT22;28293;50.930;3.464;2023-10-31T13:43:38;14.00;93.40
42683;DHT22;28293;50.930;3.464;2023-10-31T13:46:03;14.10;93.30
42683;DHT22;28293;50.930;3.464;2023-10-31T13:48:30;14.10;93.40
42683;DHT22;28293;50.930;3.464;2023-10-31T13:50:55;14.10;93.40
42683;DHT22;28293;50.930;3.464;2023-10-31T13:53:21;14.10;93.10
42683;DHT22;28293;50.930;3.464;2023-10-31T13:55:47;14.10;93.30
42683;DHT22;28293;50.930;3.464;2023-10-31T13:58:14;14.00;93.10
42683;DHT22;28293;50.930;3.464;2023-10-31T14:00:40;14.00;93.30
42683;DHT22;28293;50.930;3.464;2023-10-31T14:03:06;14.10;93.80
42683;DHT22;28293;50.930;3.464;2023-10-31T14:05:31;14.40;93.70
42683;DHT22;28293;50.930;3.464;2023-10-31T14:07:57;14.50;93.00
42683;DHT22;28293;50.930;3.464;2023-10-31T14:10:24;14.60;92.60
42683;DHT22;28293;50.930;3.464;2023-10-31T14:12:50;14.50;92.40
42683;DHT22;28293;50.930;3.464;2023-10-31T14:15:18;14.40;92.50
42683;DHT22;28293;50.930;3.464;2023-10-31T14:17:43;14.30;92.50
42683;DHT22;28293;50.930;3.464;2023-10-31T14:20:10;14.30;92.80
42683;DHT22;28293;50.930;3.464;2023-10-31T14:22:36;14.30;93.20
42683;DHT22;28293;50.930;3.464;2023-10-31T14:25:02;14.40;93.10
42683;DHT22;28293;50.930;3.464;2023-10-31T14:27:29;14.40;93.00
42683;DHT22;28293;50.930;3.464;2023-10-31T14:29:55;14.50;93.00
42683;DHT22;28293;50.930;3.464;2023-10-31T14:32:21;14.50;93.20
42683;DHT22;28293;50.930;3.464;2023-10-31T14:34:47;14.50;93.20
42683;DHT22;28293;50.930;3.464;2023-10-31T14:37:13;14.60;92.80
42683;DHT22;28293;50.930;3.464;2023-10-31T14:39:38;14.60;92.70
42683;DHT22;28293;50.930;3.464;2023-10-31T14:42:04;14.60;92.60
42683;DHT22;28293;50.930;3.464;2023-10-31T14:44:30;14.60;92.80
42683;DHT22;28293;50.930;3.464;2023-10-31T14:46:56;14.60;92.70
42683;DHT22;28293;50.930;3.464;2023-10-31T14:49:22;14.60;92.60
42683;DHT22;28293;50.930;3.464;2023-10-31T14:51:47;14.70;92.70
42683;DHT22;28293;50.930;3.464;2023-10-31T14:54:13;14.70;92.60
42683;DHT22;28293;50.930;3.464;2023-10-31T14:56:39;14.60;92.70
42683;DHT22;28293;50.930;3.464;2023-10-31T14:59:06;14.60;92.50
42683;DHT22;28293;50.930;3.464;2023-10-31T15:01:31;14.60;92.70
42683;DHT22;28293;50.930;3.464;2023-10-31T15:03:58;14.60;92.70
42683;DHT22;28293;50.930;3.464;2023-10-31T15:06:24;14.60;92.90
42683;DHT22;28293;50.930;3.464;2023-10-31T15:08:49;14.60;93.00
42683;DHT22;28293;50.930;3.464;2023-10-31T15:11:15;14.50;92.80
42683;DHT22;28293;50.930;3.464;2023-10-31T15:13:42;14.40;92.80
42683;DHT22;28293;50.930;3.464;2023-10-31T15:16:08;14.40;92.90
42683;DHT22;28293;50.930;3.464;2023-10-31T15:18:34;14.30;93.10
42683;DHT22;28293;50.930;3.464;2023-10-31T15:21:01;14.30;93.30
42683;DHT22;28293;50.930;3.464;2023-10-31T15:23:28;14.20;93.40
42683;DHT22;28293;50.930;3.464;2023-10-31T15:25:56;14.10;93.60
42683;DHT22;28293;50.930;3.464;2023-10-31T15:28:23;14.00;93.80
42683;DHT22;28293;50.930;3.464;2023-10-31T15:30:51;14.00;94.00